sensor_id;sensor_type;location;lat;lon;timestamp;pressure;altitude;pressure_sealevel;temperature;humidity
40794;BME280;26502;51.886;15.604;2023-06-10T00:02:51;100612.46;;;18.20;51.20
40794;BME280;26502;51.886;15.604;2023-06-10T00:07:57;100614.50;;;18.08;51.53
40794;BME280;26502;51.886;15.604;2023-06-10T00:13:04;100615.55;;;18.00;51.85
40794;BME280;26502;51.886;15.604;2023-06-10T00:18:12;100612.16;;;17.88;51.99
40794;BME280;26502;51.886;15.604;2023-06-10T00:23:18;100611.27;;;17.68;52.21
40794;BME280;26502;51.886;15.604;2023-06-10T00:28:24;100614.92;;;17.24;52.73
40794;BME280;26502;51.886;15.604;2023-06-10T00:33:29;100614.67;;;17.31;53.13
40794;BME280;26502;51.886;15.604;2023-06-10T00:38:35;100614.14;;;17.45;53.30
40794;BME280;26502;51.886;15.604;2023-06-10T00:43:41;100613.08;;;17.59;53.19
40794;BME280;26502;51.886;15.604;2023-06-10T00:48:47;100622.75;;;17.54;53.18
40794;BME280;26502;51.886;15.604;2023-06-10T00:53:53;100628.34;;;17.27;53.34
40794;BME280;26502;51.886;15.604;2023-06-10T00:59:00;100632.69;;;17.29;53.75
40794;BME280;26502;51.886;15.604;2023-06-10T01:04:06;100634.45;;;17.27;53.69
40794;BME280;26502;51.886;15.604;2023-06-10T01:09:21;100636.16;;;17.20;53.94
40794;BME280;26502;51.886;15.604;2023-06-10T01:14:28;100642.37;;;17.27;53.98
40794;BME280;26502;51.886;15.604;2023-06-10T01:19:36;100648.60;;;17.19;54.07
40794;BME280;26502;51.886;15.604;2023-06-10T01:24:41;100652.40;;;17.18;54.25
40794;BME280;26502;51.886;15.604;2023-06-10T01:29:54;100650.73;;;17.10;54.31
40794;BME280;26502;51.886;15.604;2023-06-10T01:35:00;100650.51;;;16.99;54.56
40794;BME280;26502;51.886;15.604;2023-06-10T01:40:09;100653.47;;;16.87;54.69
40794;BME280;26502;51.886;15.604;2023-06-10T01:45:16;100657.56;;;16.85;54.83
40794;BME280;26502;51.886;15.604;2023-06-10T01:50:21;100661.71;;;16.91;54.93
40794;BME280;26502;51.886;15.604;2023-06-10T01:55:28;100659.16;;;16.82;54.86
40794;BME280;26502;51.886;15.604;2023-06-10T02:00:33;100667.59;;;16.73;54.96
40794;BME280;26502;51.886;15.604;2023-06-10T02:05:39;100667.98;;;16.41;55.08
40794;BME280;26502;51.886;15.604;2023-06-10T02:10:46;100666.05;;;16.28;55.55
40794;BME280;26502;51.886;15.604;2023-06-10T02:15:52;100667.73;;;16.27;55.69
40794;BME280;26502;51.886;15.604;2023-06-10T02:20:59;100667.95;;;16.16;55.92
40794;BME280;26502;51.886;15.604;2023-06-10T02:26:05;100670.20;;;16.14;56.16
40794;BME280;26502;51.886;15.604;2023-06-10T02:31:11;100680.19;;;16.02;56.26
40794;BME280;26502;51.886;15.604;2023-06-10T02:36:17;100679.36;;;15.98;56.48
40794;BME280;26502;51.886;15.604;2023-06-10T02:41:22;100685.22;;;16.02;56.58
40794;BME280;26502;51.886;15.604;2023-06-10T02:46:29;100682.48;;;15.97;56.50
40794;BME280;26502;51.886;15.604;2023-06-10T02:51:37;100680.67;;;15.87;56.70
40794;BME280;26502;51.886;15.604;2023-06-10T02:56:43;100679.55;;;15.77;56.78
40794;BME280;26502;51.886;15.604;2023-06-10T03:01:53;100679.14;;;15.75;57.11
40794;BME280;26502;51.886;15.604;2023-06-10T03:07:00;100681.98;;;15.75;57.29
40794;BME280;26502;51.886;15.604;2023-06-10T03:12:12;100683.40;;;15.83;57.30
40794;BME280;26502;51.886;15.604;2023-06-10T03:17:21;100682.13;;;15.86;57.37
40794;BME280;26502;51.886;15.604;2023-06-10T03:22:28;100681.27;;;15.86;57.41
40794;BME280;26502;51.886;15.604;2023-06-10T03:27:44;100679.88;;;15.95;57.52
40794;BME280;26502;51.886;15.604;2023-06-10T03:32:50;100683.44;;;15.99;57.56
40794;BME280;26502;51.886;15.604;2023-06-10T03:37:57;100690.41;;;15.99;57.71
40794;BME280;26502;51.886;15.604;2023-06-10T03:43:03;100689.45;;;16.03;57.80
40794;BME280;26502;51.886;15.604;2023-06-10T03:48:09;100697.77;;;16.08;57.90
40794;BME280;26502;51.886;15.604;2023-06-10T03:53:25;100698.70;;;16.14;57.84
40794;BME280;26502;51.886;15.604;2023-06-10T03:58:30;100707.16;;;16.17;58.33
40794;BME280;26502;51.886;15.604;2023-06-10T04:03:36;100712.83;;;16.18;58.18
40794;BME280;26502;51.886;15.604;2023-06-10T04:08:44;100713.52;;;16.19;58.47
40794;BME280;26502;51.886;15.604;2023-06-10T04:13:49;100713.63;;;16.29;58.71
40794;BME280;26502;51.886;15.604;2023-06-10T04:18:56;100711.58;;;16.37;59.02
40794;BME280;26502;51.886;15.604;2023-06-10T04:24:02;100717.48;;;16.53;59.50
40794;BME280;26502;51.886;15.604;2023-06-10T04:29:10;100721.70;;;16.74;59.82
40794;BME280;26502;51.886;15.604;2023-06-10T04:34:16;100719.46;;;16.94;60.07
40794;BME280;26502;51.886;15.604;2023-06-10T04:39:23;100717.13;;;17.19;60.26
40794;BME280;26502;51.886;15.604;2023-06-10T04:44:29;100715.23;;;17.47;60.04
40794;BME280;26502;51.886;15.604;2023-06-10T04:49:35;100718.94;;;17.78;60.19
40794;BME280;26502;51.886;15.604;2023-06-10T04:54:41;100722.46;;;18.12;60.01
40794;BME280;26502;51.886;15.604;2023-06-10T04:59:47;100728.75;;;18.40;59.84
40794;BME280;26502;51.886;15.604;2023-06-10T05:04:53;100736.71;;;18.67;59.77
40794;BME280;26502;51.886;15.604;2023-06-10T05:09:59;100742.77;;;18.90;59.38
40794;BME280;26502;51.886;15.604;2023-06-10T05:15:07;100748.16;;;19.15;59.17
40794;BME280;26502;51.886;15.604;2023-06-10T05:20:13;100748.73;;;19.30;58.94
40794;BME280;26502;51.886;15.604;2023-06-10T05:25:19;100758.43;;;19.41;58.96
40794;BME280;26502;51.886;15.604;2023-06-10T05:30:25;100769.55;;;19.55;58.61
40794;BME280;26502;51.886;15.604;2023-06-10T05:35:31;100773.58;;;19.62;58.53
40794;BME280;26502;51.886;15.604;2023-06-10T05:40:38;100769.86;;;19.72;58.44
40794;BME280;26502;51.886;15.604;2023-06-10T05:45:43;100766.36;;;19.81;58.30
40794;BME280;26502;51.886;15.604;2023-06-10T05:50:49;100772.16;;;19.93;58.13
40794;BME280;26502;51.886;15.604;2023-06-10T05:55:55;100777.29;;;20.15;58.07
40794;BME280;26502;51.886;15.604;2023-06-10T06:01:01;100775.63;;;20.36;57.74
40794;BME280;26502;51.886;15.604;2023-06-10T06:06:07;100779.05;;;20.56;57.57
40794;BME280;26502;51.886;15.604;2023-06-10T06:11:13;100779.02;;;20.72;57.24
40794;BME280;26502;51.886;15.604;2023-06-10T06:16:19;100780.08;;;20.87;57.35
40794;BME280;26502;51.886;15.604;2023-06-10T06:21:25;100791.16;;;21.20;56.77
40794;BME280;26502;51.886;15.604;2023-06-10T06:26:30;100792.44;;;21.27;55.99
40794;BME280;26502;51.886;15.604;2023-06-10T06:31:36;100790.36;;;21.33;55.82
40794;BME280;26502;51.886;15.604;2023-06-10T06:36:42;100802.89;;;21.61;55.48
40794;BME280;26502;51.886;15.604;2023-06-10T06:41:48;100805.06;;;21.70;54.71
40794;BME280;26502;51.886;15.604;2023-06-10T06:46:54;100811.06;;;21.65;54.24
40794;BME280;26502;51.886;15.604;2023-06-10T06:51:59;100820.08;;;21.87;53.82
40794;BME280;26502;51.886;15.604;2023-06-10T06:57:06;100825.30;;;22.06;53.18
40794;BME280;26502;51.886;15.604;2023-06-10T07:02:12;100827.39;;;22.27;52.57
40794;BME280;26502;51.886;15.604;2023-06-10T07:07:18;100836.17;;;22.62;52.38
40794;BME280;26502;51.886;15.604;2023-06-10T07:12:24;100841.98;;;22.92;51.46
40794;BME280;26502;51.886;15.604;2023-06-10T07:17:29;100849.73;;;23.10;50.85
40794;BME280;26502;51.886;15.604;2023-06-10T07:22:35;100845.62;;;23.23;50.04
40794;BME280;26502;51.886;15.604;2023-06-10T07:27:43;100844.77;;;23.35;49.33
40794;BME280;26502;51.886;15.604;2023-06-10T07:32:48;100844.10;;;23.47;48.95
40794;BME280;26502;51.886;15.604;2023-06-10T07:37:55;100844.02;;;23.63;48.43
40794;BME280;26502;51.886;15.604;2023-06-10T07:43:01;100840.31;;;23.79;47.90
40794;BME280;26502;51.886;15.604;2023-06-10T07:48:07;100845.70;;;23.97;47.42
40794;BME280;26502;51.886;15.604;2023-06-10T07:53:12;100850.20;;;24.10;46.75
40794;BME280;26502;51.886;15.604;2023-06-10T07:58:18;100846.86;;;24.27;46.53
40794;BME280;26502;51.886;15.604;2023-06-10T08:03:24;100845.92;;;24.55;46.32
40794;BME280;26502;51.886;15.604;2023-06-10T08:08:29;100842.98;;;24.80;46.01
40794;BME280;26502;51.886;15.604;2023-06-10T08:13:35;100850.70;;;24.79;45.31
40794;BME280;26502;51.886;15.604;2023-06-10T08:18:42;100850.16;;;24.93;45.14
40794;BME280;26502;51.886;15.604;2023-06-10T08:23:49;100848.02;;;24.97;44.71
40794;BME280;26502;51.886;15.604;2023-06-10T08:28:57;100854.27;;;24.96;44.67
40794;BME280;26502;51.886;15.604;2023-06-10T08:34:03;100851.94;;;25.26;44.46
40794;BME280;26502;51.886;15.604;2023-06-10T08:39:09;100854.36;;;25.47;44.16
40794;BME280;26502;51.886;15.604;2023-06-10T08:44:21;100852.86;;;25.75;44.06
40794;BME280;26502;51.886;15.604;2023-06-10T08:49:31;100856.25;;;25.90;43.57
40794;BME280;26502;51.886;15.604;2023-06-10T08:54:40;100849.63;;;26.10;43.48
40794;BME280;26502;51.886;15.604;2023-06-10T08:59:48;100847.65;;;26.21;43.13
40794;BME280;26502;51.886;15.604;2023-06-10T09:04:54;100846.29;;;26.20;42.63
40794;BME280;26502;51.886;15.604;2023-06-10T09:10:02;100845.02;;;26.16;42.35
40794;BME280;26502;51.886;15.604;2023-06-10T09:15:11;100838.13;;;26.29;42.42
40794;BME280;26502;51.886;15.604;2023-06-10T09:20:19;100834.23;;;26.47;42.21
40794;BME280;26502;51.886;15.604;2023-06-10T09:25:36;100832.64;;;26.50;42.03
40794;BME280;26502;51.886;15.604;2023-06-10T09:30:42;100838.02;;;26.49;41.97
40794;BME280;26502;51.886;15.604;2023-06-10T09:35:49;100837.05;;;26.51;41.71
40794;BME280;26502;51.886;15.604;2023-06-10T09:40:55;100841.94;;;26.25;41.58
40794;BME280;26502;51.886;15.604;2023-06-10T09:46:01;100839.95;;;26.21;41.79
40794;BME280;26502;51.886;15.604;2023-06-10T09:51:10;100833.08;;;26.23;41.71
40794;BME280;26502;51.886;15.604;2023-06-10T09:56:15;100827.89;;;26.50;41.65
40794;BME280;26502;51.886;15.604;2023-06-10T10:01:21;100820.55;;;27.01;41.50
40794;BME280;26502;51.886;15.604;2023-06-10T10:06:28;100812.12;;;27.54;40.92
40794;BME280;26502;51.886;15.604;2023-06-10T10:11:35;100812.45;;;28.01;40.21
40794;BME280;26502;51.886;15.604;2023-06-10T10:16:42;100819.81;;;28.00;39.33
40794;BME280;26502;51.886;15.604;2023-06-10T10:21:52;100816.64;;;27.86;39.09
40794;BME280;26502;51.886;15.604;2023-06-10T10:27:00;100810.23;;;27.97;38.75
40794;BME280;26502;51.886;15.604;2023-06-10T10:32:09;100802.64;;;27.93;37.87
40794;BME280;26502;51.886;15.604;2023-06-10T10:37:17;100800.09;;;28.12;37.63
40794;BME280;26502;51.886;15.604;2023-06-10T10:42:23;100806.89;;;28.71;36.79
40794;BME280;26502;51.886;15.604;2023-06-10T10:47:29;100800.71;;;28.87;35.52
40794;BME280;26502;51.886;15.604;2023-06-10T10:52:50;100793.89;;;29.02;34.96
40794;BME280;26502;51.886;15.604;2023-06-10T10:57:58;100794.89;;;29.40;34.55
40794;BME280;26502;51.886;15.604;2023-06-10T11:03:08;100791.16;;;29.57;33.30
40794;BME280;26502;51.886;15.604;2023-06-10T11:08:47;100797.96;;;29.55;32.59
40794;BME280;26502;51.886;15.604;2023-06-10T11:14:09;100795.67;;;29.63;32.63
40794;BME280;26502;51.886;15.604;2023-06-10T11:19:35;100799.77;;;30.04;31.95
40794;BME280;26502;51.886;15.604;2023-06-10T11:24:41;100795.50;;;30.06;31.36
40794;BME280;26502;51.886;15.604;2023-06-10T11:30:19;100787.27;;;30.26;31.03
40794;BME280;26502;51.886;15.604;2023-06-10T11:35:26;100785.14;;;30.28;30.19
40794;BME280;26502;51.886;15.604;2023-06-10T11:40:32;100789.34;;;30.49;29.89
40794;BME280;26502;51.886;15.604;2023-06-10T11:45:38;100783.20;;;30.45;29.11
40794;BME280;26502;51.886;15.604;2023-06-10T11:50:46;100782.89;;;30.65;29.00
40794;BME280;26502;51.886;15.604;2023-06-10T11:55:53;100778.65;;;30.94;28.68
40794;BME280;26502;51.886;15.604;2023-06-10T12:00:59;100775.48;;;30.99;28.15
40794;BME280;26502;51.886;15.604;2023-06-10T12:06:04;100772.70;;;30.62;27.67
40794;BME280;26502;51.886;15.604;2023-06-10T12:11:11;100764.90;;;30.81;27.55
40794;BME280;26502;51.886;15.604;2023-06-10T12:16:17;100762.73;;;30.73;26.42
40794;BME280;26502;51.886;15.604;2023-06-10T12:21:25;100767.46;;;31.00;26.64
40794;BME280;26502;51.886;15.604;2023-06-10T12:26:44;100767.17;;;31.51;26.12
40794;BME280;26502;51.886;15.604;2023-06-10T12:32:03;100759.85;;;31.66;26.04
40794;BME280;26502;51.886;15.604;2023-06-10T12:37:14;100761.16;;;31.80;25.29
40794;BME280;26502;51.886;15.604;2023-06-10T12:42:22;100758.94;;;31.45;25.01
40794;BME280;26502;51.886;15.604;2023-06-10T12:47:33;100754.60;;;31.86;25.01
40794;BME280;26502;51.886;15.604;2023-06-10T12:52:39;100747.80;;;32.02;24.46
40794;BME280;26502;51.886;15.604;2023-06-10T12:57:52;100744.89;;;32.09;24.38
40794;BME280;26502;51.886;15.604;2023-06-10T13:02:59;100741.70;;;31.79;24.10
40794;BME280;26502;51.886;15.604;2023-06-10T13:08:06;100744.62;;;31.51;24.09
40794;BME280;26502;51.886;15.604;2023-06-10T13:13:11;100739.57;;;31.53;24.22
40794;BME280;26502;51.886;15.604;2023-06-10T13:18:16;100737.55;;;31.97;23.83
40794;BME280;26502;51.886;15.604;2023-06-10T13:23:23;100740.58;;;31.81;23.66
40794;BME280;26502;51.886;15.604;2023-06-10T13:28:29;100738.13;;;31.10;23.45
40794;BME280;26502;51.886;15.604;2023-06-10T13:33:35;100727.16;;;31.46;23.52
40794;BME280;26502;51.886;15.604;2023-06-10T13:38:41;100736.33;;;31.14;23.29
40794;BME280;26502;51.886;15.604;2023-06-10T13:43:47;100735.45;;;31.12;23.36
40794;BME280;26502;51.886;15.604;2023-06-10T13:48:53;100732.64;;;31.75;23.20
40794;BME280;26502;51.886;15.604;2023-06-10T13:53:58;100730.66;;;31.90;22.58
40794;BME280;26502;51.886;15.604;2023-06-10T13:59:04;100724.40;;;32.25;22.28
40794;BME280;26502;51.886;15.604;2023-06-10T14:04:10;100721.80;;;31.90;22.06
40794;BME280;26502;51.886;15.604;2023-06-10T14:09:15;100731.46;;;31.18;22.09
40794;BME280;26502;51.886;15.604;2023-06-10T14:14:22;100734.78;;;31.10;22.41
40794;BME280;26502;51.886;15.604;2023-06-10T14:19:28;100734.23;;;31.88;22.68
40794;BME280;26502;51.886;15.604;2023-06-10T14:24:34;100733.45;;;32.32;22.13
40794;BME280;26502;51.886;15.604;2023-06-10T14:29:40;100730.37;;;32.36;21.95
40794;BME280;26502;51.886;15.604;2023-06-10T14:34:46;100737.97;;;31.78;21.84
40794;BME280;26502;51.886;15.604;2023-06-10T14:39:52;100745.42;;;30.91;22.02
40794;BME280;26502;51.886;15.604;2023-06-10T14:44:58;100738.11;;;30.80;22.26
40794;BME280;26502;51.886;15.604;2023-06-10T14:50:05;100735.85;;;31.27;22.32
40794;BME280;26502;51.886;15.604;2023-06-10T14:55:09;100733.48;;;31.58;21.98
40794;BME280;26502;51.886;15.604;2023-06-10T15:00:18;100724.77;;;31.22;22.18
40794;BME280;26502;51.886;15.604;2023-06-10T15:05:26;100736.91;;;30.57;22.37
40794;BME280;26502;51.886;15.604;2023-06-10T15:10:32;100729.60;;;31.03;22.68
40794;BME280;26502;51.886;15.604;2023-06-10T15:15:38;100732.66;;;31.13;22.73
40794;BME280;26502;51.886;15.604;2023-06-10T15:20:43;100742.66;;;30.46;22.73
40794;BME280;26502;51.886;15.604;2023-06-10T15:25:49;100748.33;;;29.78;23.17
40794;BME280;26502;51.886;15.604;2023-06-10T15:30:55;100742.08;;;29.36;23.52
40794;BME280;26502;51.886;15.604;2023-06-10T15:36:01;100740.33;;;29.27;23.81
40794;BME280;26502;51.886;15.604;2023-06-10T15:41:07;100736.79;;;29.55;23.99
40794;BME280;26502;51.886;15.604;2023-06-10T15:46:12;100732.77;;;30.06;24.02
40794;BME280;26502;51.886;15.604;2023-06-10T15:51:18;100732.53;;;30.46;23.71
40794;BME280;26502;51.886;15.604;2023-06-10T15:56:24;100730.65;;;29.97;23.65
40794;BME280;26502;51.886;15.604;2023-06-10T16:01:30;100730.84;;;29.89;23.75
40794;BME280;26502;51.886;15.604;2023-06-10T16:06:36;100734.71;;;30.19;23.68
40794;BME280;26502;51.886;15.604;2023-06-10T16:11:42;100738.20;;;30.32;23.45
40794;BME280;26502;51.886;15.604;2023-06-10T16:16:48;100736.44;;;30.30;23.42
40794;BME280;26502;51.886;15.604;2023-06-10T16:21:53;100740.51;;;30.47;23.40
40794;BME280;26502;51.886;15.604;2023-06-10T16:26:59;100742.29;;;30.56;22.99
40794;BME280;26502;51.886;15.604;2023-06-10T16:32:08;100744.83;;;30.25;22.87
40794;BME280;26502;51.886;15.604;2023-06-10T16:37:14;100752.08;;;30.03;23.05
40794;BME280;26502;51.886;15.604;2023-06-10T16:42:20;100753.54;;;29.97;22.88
40794;BME280;26502;51.886;15.604;2023-06-10T16:47:25;100753.64;;;29.81;22.93
40794;BME280;26502;51.886;15.604;2023-06-10T16:52:31;100758.33;;;29.62;22.78
40794;BME280;26502;51.886;15.604;2023-06-10T16:57:37;100755.77;;;29.34;22.77
40794;BME280;26502;51.886;15.604;2023-06-10T17:02:43;100761.54;;;29.03;22.63
40794;BME280;26502;51.886;15.604;2023-06-10T17:07:49;100769.11;;;28.71;22.65
40794;BME280;26502;51.886;15.604;2023-06-10T17:12:54;100776.62;;;28.46;22.80
40794;BME280;26502;51.886;15.604;2023-06-10T17:18:00;100776.95;;;28.14;22.89
40794;BME280;26502;51.886;15.604;2023-06-10T17:23:06;100779.91;;;28.01;22.94
40794;BME280;26502;51.886;15.604;2023-06-10T17:28:12;100790.58;;;27.77;23.01
40794;BME280;26502;51.886;15.604;2023-06-10T17:33:18;100794.05;;;27.58;23.12
40794;BME280;26502;51.886;15.604;2023-06-10T17:38:24;100800.92;;;27.33;23.20
40794;BME280;26502;51.886;15.604;2023-06-10T17:43:30;100807.69;;;27.14;23.41
40794;BME280;26502;51.886;15.604;2023-06-10T17:48:35;100815.18;;;26.98;23.56
40794;BME280;26502;51.886;15.604;2023-06-10T17:53:41;100820.83;;;26.81;23.58
40794;BME280;26502;51.886;15.604;2023-06-10T17:58:47;100826.26;;;26.63;23.85
40794;BME280;26502;51.886;15.604;2023-06-10T18:03:53;100830.80;;;26.56;23.94
40794;BME280;26502;51.886;15.604;2023-06-10T18:08:58;100831.86;;;26.39;24.02
40794;BME280;26502;51.886;15.604;2023-06-10T18:14:04;100842.04;;;26.22;23.91
40794;BME280;26502;51.886;15.604;2023-06-10T18:19:10;100845.23;;;26.12;24.05
40794;BME280;26502;51.886;15.604;2023-06-10T18:24:16;100849.17;;;25.91;24.05
40794;BME280;26502;51.886;15.604;2023-06-10T18:29:22;100850.54;;;25.76;24.11
40794;BME280;26502;51.886;15.604;2023-06-10T18:34:27;100861.61;;;25.55;23.69
40794;BME280;26502;51.886;15.604;2023-06-10T18:39:34;100869.48;;;25.41;23.78
40794;BME280;26502;51.886;15.604;2023-06-10T18:44:40;100878.44;;;25.30;23.60
40794;BME280;26502;51.886;15.604;2023-06-10T18:49:46;100885.88;;;25.20;23.55
40794;BME280;26502;51.886;15.604;2023-06-10T18:54:52;100894.10;;;25.09;23.63
40794;BME280;26502;51.886;15.604;2023-06-10T18:59:58;100905.13;;;24.96;23.51
40794;BME280;26502;51.886;15.604;2023-06-10T19:05:07;100909.41;;;24.81;23.60
40794;BME280;26502;51.886;15.604;2023-06-10T19:10:14;100920.98;;;24.71;23.65
40794;BME280;26502;51.886;15.604;2023-06-10T19:15:20;100926.64;;;24.60;23.81
40794;BME280;26502;51.886;15.604;2023-06-10T19:20:26;100933.74;;;24.51;23.85
40794;BME280;26502;51.886;15.604;2023-06-10T19:25:33;100942.09;;;24.34;24.25
40794;BME280;26502;51.886;15.604;2023-06-10T19:30:39;100945.19;;;24.17;24.67
40794;BME280;26502;51.886;15.604;2023-06-10T19:35:45;100952.69;;;23.95;24.94
40794;BME280;26502;51.886;15.604;2023-06-10T19:40:52;100962.82;;;23.71;25.46
40794;BME280;26502;51.886;15.604;2023-06-10T19:45:59;100965.09;;;23.48;25.71
40794;BME280;26502;51.886;15.604;2023-06-10T19:51:05;100970.02;;;23.23;26.30
40794;BME280;26502;51.886;15.604;2023-06-10T19:56:12;100970.24;;;23.02;26.52
40794;BME280;26502;51.886;15.604;2023-06-10T20:01:22;100974.10;;;22.79;26.89
40794;BME280;26502;51.886;15.604;2023-06-10T20:06:29;100976.08;;;22.60;27.11
40794;BME280;26502;51.886;15.604;2023-06-10T20:11:37;100977.36;;;22.39;27.22
40794;BME280;26502;51.886;15.604;2023-06-10T20:16:42;100982.81;;;22.24;27.72
40794;BME280;26502;51.886;15.604;2023-06-10T20:21:49;100986.37;;;22.09;28.24
40794;BME280;26502;51.886;15.604;2023-06-10T20:26:54;100989.73;;;21.91;28.42
40794;BME280;26502;51.886;15.604;2023-06-10T20:32:00;100996.79;;;21.76;28.74
40794;BME280;26502;51.886;15.604;2023-06-10T20:37:06;100998.53;;;21.60;28.96
40794;BME280;26502;51.886;15.604;2023-06-10T20:42:12;101002.52;;;21.44;29.21
40794;BME280;26502;51.886;15.604;2023-06-10T20:47:19;101005.62;;;21.29;29.43
40794;BME280;26502;51.886;15.604;2023-06-10T20:52:25;101011.75;;;20.93;29.59
40794;BME280;26502;51.886;15.604;2023-06-10T20:57:31;101015.61;;;20.80;29.64
40794;BME280;26502;51.886;15.604;2023-06-10T21:02:36;101017.49;;;20.76;29.92
40794;BME280;26502;51.886;15.604;2023-06-10T21:07:42;101015.91;;;20.67;29.89
40794;BME280;26502;51.886;15.604;2023-06-10T21:12:50;101021.34;;;20.56;30.24
40794;BME280;26502;51.886;15.604;2023-06-10T21:17:56;101023.73;;;20.45;30.26
40794;BME280;26502;51.886;15.604;2023-06-10T21:23:02;101016.89;;;20.29;30.41
40794;BME280;26502;51.886;15.604;2023-06-10T21:28:07;101017.98;;;20.18;30.57
40794;BME280;26502;51.886;15.604;2023-06-10T21:33:13;101017.75;;;20.08;30.84
40794;BME280;26502;51.886;15.604;2023-06-10T21:38:19;101015.39;;;20.03;30.89
40794;BME280;26502;51.886;15.604;2023-06-10T21:43:27;101010.08;;;19.91;31.06
40794;BME280;26502;51.886;15.604;2023-06-10T21:48:33;101016.21;;;19.71;31.24
40794;BME280;26502;51.886;15.604;2023-06-10T21:53:39;101017.73;;;19.53;31.74
40794;BME280;26502;51.886;15.604;2023-06-10T21:58:45;101014.59;;;19.40;31.76
40794;BME280;26502;51.886;15.604;2023-06-10T22:03:52;101013.19;;;19.34;31.68
40794;BME280;26502;51.886;15.604;2023-06-10T22:08:58;101011.20;;;19.31;31.66
40794;BME280;26502;51.886;15.604;2023-06-10T22:14:04;101015.15;;;19.34;31.80
40794;BME280;26502;51.886;15.604;2023-06-10T22:19:10;101012.47;;;19.28;31.80
40794;BME280;26502;51.886;15.604;2023-06-10T22:24:16;101017.89;;;19.16;31.81
40794;BME280;26502;51.886;15.604;2023-06-10T22:29:22;101012.57;;;19.12;32.06
40794;BME280;26502;51.886;15.604;2023-06-10T22:34:27;101015.03;;;19.13;32.23
40794;BME280;26502;51.886;15.604;2023-06-10T22:39:33;101011.70;;;19.09;32.30
40794;BME280;26502;51.886;15.604;2023-06-10T22:44:39;101014.83;;;19.05;32.55
40794;BME280;26502;51.886;15.604;2023-06-10T22:49:45;101010.41;;;18.92;32.69
40794;BME280;26502;51.886;15.604;2023-06-10T22:54:50;101007.63;;;18.87;32.94
40794;BME280;26502;51.886;15.604;2023-06-10T22:59:58;101007.36;;;18.82;33.23
40794;BME280;26502;51.886;15.604;2023-06-10T23:05:05;101008.30;;;18.73;33.48
40794;BME280;26502;51.886;15.604;2023-06-10T23:10:11;101008.23;;;18.60;33.81
40794;BME280;26502;51.886;15.604;2023-06-10T23:15:17;101007.27;;;18.55;34.03
40794;BME280;26502;51.886;15.604;2023-06-10T23:20:23;101010.92;;;18.47;34.27
40794;BME280;26502;51.886;15.604;2023-06-10T23:25:29;101014.14;;;18.36;34.69
40794;BME280;26502;51.886;15.604;2023-06-10T23:30:34;101010.15;;;18.34;35.04
40794;BME280;26502;51.886;15.604;2023-06-10T23:35:40;101007.34;;;18.32;35.49
40794;BME280;26502;51.886;15.604;2023-06-10T23:40:46;101008.17;;;18.24;35.58
40794;BME280;26502;51.886;15.604;2023-06-10T23:45:52;101004.39;;;18.19;35.98
40794;BME280;26502;51.886;15.604;2023-06-10T23:50:58;100997.46;;;18.11;36.11
40794;BME280;26502;51.886;15.604;2023-06-10T23:56:06;100999.81;;;18.02;36.26
